East Peoria, IL

8:31 PM CST on December 27, 2014 (GMT -0600)
Lacon | Change Station
CLOSE
Current Station
Airport
Location: Lacon,
Elevation: 568 ft
Nearby Weather Stations

Elev 568 ft 41.02 °N, 89.39 °W | Updated 16 minutes ago

Overcast
Overcast
31 °F
Feels Like 26 °F
N
5
Wind Variable Wind from West

Today
High -- | Low -- °F
--% Chance of Precip.
Yesterday
High -- | Low -- °F
Precip. -- in
7:21 AM 4:37 PM
Waxing Crescent, 42% visible
Pressure 30.16 in
Visibility 10.0 miles
Clouds Scattered Clouds 2700 ft
Windchill 26 °F
Dew Point 25 °F
Humidity 77%
Rainfall 0.00 in
Snow Depth Not available.
UV 0 out of 12
Pollen .10 out of 12
Air Quality Not available.
Flu Activity Not available.
METAR KC75 280215Z AUTO 27004KT 10SM SCT027 00/M04 A3016 RMK AO2 T10051040

More Conditions Fewer Conditions

Pressure 30.16 in
Visibility 10.0 miles
Clouds Scattered Clouds 2700 ft
Windchill 26 °F
Dew Point 25 °F
Humidity 77%
Rainfall 0.00 in
Snow Depth Not available.
UV 0 out of 12
Pollen .10 out of 12
Air Quality Not available.
Flu Activity Not available.
METAR KC75 280215Z AUTO 27004KT 10SM SCT027 00/M04 A3016 RMK AO2 T10051040

More Conditions Fewer Conditions

10-Day Weather Forecast

Almanac

Astronomy

Dec. 27, 2014 Rise Set
Actual Time
Civil Twilight
Nautical Twilight
Astronomical Twilight
Moon
Length of Visible Light
Length of Day
Tomorrow will be .
, % of the Moon is Illuminated

Today's Extremes

State Highs State Lows

Community

WunderPhotos

Upload Photos

1,781,143 photos uploaded!

WunderBlogs® & News

Nearby

Air Quality

  Air Quality AQ Index Pollutant
Not available.

Snow Depth

Station Depth Elevation

Earthquake Activity

City Distance Mag. Time & Date
Minimum magnitude displayed is 2.5.

Coastal Water Temperatures

Place Temperature

Nearby Weather Stations